sensor_id;sensor_type;location;lat;lon;timestamp;P1;durP1;ratioP1;P2;durP2;ratioP2
40787;SDS011;26497;52.494;7.546;2022-12-07T00:00:52;29.05;;;14.95;;
40787;SDS011;26497;52.494;7.546;2022-12-07T00:03:20;30.42;;;15.45;;
40787;SDS011;26497;52.494;7.546;2022-12-07T00:05:47;26.75;;;12.20;;
40787;SDS011;26497;52.494;7.546;2022-12-07T00:08:15;21.45;;;12.40;;
40787;SDS011;26497;52.494;7.546;2022-12-07T00:10:42;21.05;;;10.73;;
40787;SDS011;26497;52.494;7.546;2022-12-07T00:13:09;18.55;;;10.13;;
40787;SDS011;26497;52.494;7.546;2022-12-07T00:15:35;26.10;;;10.88;;
40787;SDS011;26497;52.494;7.546;2022-12-07T00:18:02;20.02;;;9.57;;
40787;SDS011;26497;52.494;7.546;2022-12-07T00:20:31;17.27;;;8.88;;
40787;SDS011;26497;52.494;7.546;2022-12-07T00:22:58;18.73;;;9.60;;
40787;SDS011;26497;52.494;7.546;2022-12-07T00:25:25;21.70;;;9.52;;
40787;SDS011;26497;52.494;7.546;2022-12-07T00:27:52;16.17;;;8.60;;
40787;SDS011;26497;52.494;7.546;2022-12-07T00:30:21;18.95;;;8.27;;
40787;SDS011;26497;52.494;7.546;2022-12-07T00:32:48;18.77;;;8.50;;
40787;SDS011;26497;52.494;7.546;2022-12-07T00:35:15;13.98;;;7.75;;
40787;SDS011;26497;52.494;7.546;2022-12-07T00:37:43;15.68;;;7.82;;
40787;SDS011;26497;52.494;7.546;2022-12-07T00:40:11;21.52;;;8.38;;
40787;SDS011;26497;52.494;7.546;2022-12-07T00:42:38;14.77;;;7.93;;
40787;SDS011;26497;52.494;7.546;2022-12-07T00:45:06;16.25;;;8.75;;
40787;SDS011;26497;52.494;7.546;2022-12-07T00:47:34;17.67;;;8.13;;
40787;SDS011;26497;52.494;7.546;2022-12-07T00:50:01;16.83;;;7.80;;
40787;SDS011;26497;52.494;7.546;2022-12-07T00:52:29;17.00;;;8.00;;
40787;SDS011;26497;52.494;7.546;2022-12-07T00:54:57;20.27;;;7.05;;
40787;SDS011;26497;52.494;7.546;2022-12-07T00:57:24;17.65;;;7.22;;
40787;SDS011;26497;52.494;7.546;2022-12-07T00:59:51;21.48;;;7.22;;
40787;SDS011;26497;52.494;7.546;2022-12-07T01:02:20;13.18;;;7.30;;
40787;SDS011;26497;52.494;7.546;2022-12-07T01:04:47;17.90;;;7.07;;
40787;SDS011;26497;52.494;7.546;2022-12-07T01:07:14;16.77;;;7.15;;
40787;SDS011;26497;52.494;7.546;2022-12-07T01:09:41;18.17;;;6.88;;
40787;SDS011;26497;52.494;7.546;2022-12-07T01:12:10;15.18;;;7.43;;
40787;SDS011;26497;52.494;7.546;2022-12-07T01:14:37;13.48;;;6.78;;
40787;SDS011;26497;52.494;7.546;2022-12-07T01:17:04;13.88;;;5.80;;
40787;SDS011;26497;52.494;7.546;2022-12-07T01:19:31;13.57;;;5.55;;
40787;SDS011;26497;52.494;7.546;2022-12-07T01:21:57;11.45;;;5.88;;
40787;SDS011;26497;52.494;7.546;2022-12-07T01:24:24;26.33;;;6.05;;
40787;SDS011;26497;52.494;7.546;2022-12-07T01:26:51;14.15;;;5.55;;
40787;SDS011;26497;52.494;7.546;2022-12-07T01:29:20;14.57;;;5.60;;
40787;SDS011;26497;52.494;7.546;2022-12-07T01:31:48;20.83;;;6.85;;
40787;SDS011;26497;52.494;7.546;2022-12-07T01:34:15;18.50;;;6.43;;
40787;SDS011;26497;52.494;7.546;2022-12-07T01:36:42;13.40;;;5.07;;
40787;SDS011;26497;52.494;7.546;2022-12-07T01:39:09;7.63;;;4.18;;
40787;SDS011;26497;52.494;7.546;2022-12-07T01:41:37;14.05;;;5.13;;
40787;SDS011;26497;52.494;7.546;2022-12-07T01:46:46;16.98;;;4.80;;
40787;SDS011;26497;52.494;7.546;2022-12-07T01:49:17;15.07;;;4.28;;
40787;SDS011;26497;52.494;7.546;2022-12-07T01:51:56;13.15;;;4.97;;
40787;SDS011;26497;52.494;7.546;2022-12-07T01:54:32;8.57;;;3.67;;
40787;SDS011;26497;52.494;7.546;2022-12-07T01:57:00;12.82;;;4.82;;
40787;SDS011;26497;52.494;7.546;2022-12-07T01:59:28;15.68;;;4.82;;
40787;SDS011;26497;52.494;7.546;2022-12-07T02:01:57;12.07;;;4.95;;
40787;SDS011;26497;52.494;7.546;2022-12-07T02:04:24;7.10;;;3.83;;
40787;SDS011;26497;52.494;7.546;2022-12-07T02:06:51;9.52;;;3.53;;
40787;SDS011;26497;52.494;7.546;2022-12-07T02:09:19;11.25;;;3.38;;
40787;SDS011;26497;52.494;7.546;2022-12-07T02:11:46;8.38;;;3.95;;
40787;SDS011;26497;52.494;7.546;2022-12-07T02:14:13;14.88;;;3.92;;
40787;SDS011;26497;52.494;7.546;2022-12-07T02:16:43;14.75;;;3.63;;
40787;SDS011;26497;52.494;7.546;2022-12-07T02:19:33;8.02;;;3.60;;
40787;SDS011;26497;52.494;7.546;2022-12-07T02:22:46;9.98;;;3.38;;
40787;SDS011;26497;52.494;7.546;2022-12-07T02:26:29;8.48;;;3.05;;
40787;SDS011;26497;52.494;7.546;2022-12-07T02:29:32;10.80;;;2.58;;
40787;SDS011;26497;52.494;7.546;2022-12-07T02:32:04;4.72;;;2.45;;
40787;SDS011;26497;52.494;7.546;2022-12-07T02:34:39;9.00;;;2.88;;
40787;SDS011;26497;52.494;7.546;2022-12-07T02:37:18;5.68;;;2.72;;
40787;SDS011;26497;52.494;7.546;2022-12-07T02:39:57;11.52;;;2.90;;
40787;SDS011;26497;52.494;7.546;2022-12-07T02:42:32;4.45;;;2.33;;
40787;SDS011;26497;52.494;7.546;2022-12-07T02:45:09;4.97;;;2.30;;
40787;SDS011;26497;52.494;7.546;2022-12-07T02:47:39;7.68;;;1.90;;
40787;SDS011;26497;52.494;7.546;2022-12-07T02:50:07;10.23;;;2.60;;
40787;SDS011;26497;52.494;7.546;2022-12-07T02:52:35;12.85;;;2.72;;
40787;SDS011;26497;52.494;7.546;2022-12-07T02:55:03;8.23;;;2.20;;
40787;SDS011;26497;52.494;7.546;2022-12-07T02:57:40;11.38;;;2.42;;
40787;SDS011;26497;52.494;7.546;2022-12-07T03:00:20;7.05;;;2.22;;
40787;SDS011;26497;52.494;7.546;2022-12-07T03:02:50;21.60;;;3.10;;
40787;SDS011;26497;52.494;7.546;2022-12-07T03:05:31;3.38;;;1.77;;
40787;SDS011;26497;52.494;7.546;2022-12-07T03:08:15;19.88;;;2.35;;
40787;SDS011;26497;52.494;7.546;2022-12-07T03:10:54;9.00;;;2.92;;
40787;SDS011;26497;52.494;7.546;2022-12-07T03:13:27;12.57;;;3.13;;
40787;SDS011;26497;52.494;7.546;2022-12-07T03:16:02;6.55;;;3.65;;
40787;SDS011;26497;52.494;7.546;2022-12-07T03:18:36;18.30;;;4.55;;
40787;SDS011;26497;52.494;7.546;2022-12-07T03:21:09;15.43;;;5.32;;
40787;SDS011;26497;52.494;7.546;2022-12-07T03:23:40;13.60;;;4.60;;
40787;SDS011;26497;52.494;7.546;2022-12-07T03:26:12;14.43;;;3.88;;
40787;SDS011;26497;52.494;7.546;2022-12-07T03:28:44;21.98;;;3.05;;
40787;SDS011;26497;52.494;7.546;2022-12-07T03:31:17;7.28;;;2.60;;
40787;SDS011;26497;52.494;7.546;2022-12-07T03:33:48;9.45;;;2.85;;
40787;SDS011;26497;52.494;7.546;2022-12-07T03:36:24;10.63;;;4.03;;
40787;SDS011;26497;52.494;7.546;2022-12-07T03:39:00;20.50;;;3.55;;
40787;SDS011;26497;52.494;7.546;2022-12-07T03:41:39;9.52;;;3.65;;
40787;SDS011;26497;52.494;7.546;2022-12-07T03:44:07;6.18;;;2.72;;
40787;SDS011;26497;52.494;7.546;2022-12-07T03:46:37;21.73;;;3.50;;
40787;SDS011;26497;52.494;7.546;2022-12-07T03:49:11;14.10;;;4.05;;
40787;SDS011;26497;52.494;7.546;2022-12-07T03:51:50;16.05;;;3.13;;
40787;SDS011;26497;52.494;7.546;2022-12-07T03:54:22;9.13;;;2.88;;
40787;SDS011;26497;52.494;7.546;2022-12-07T03:56:55;12.02;;;2.88;;
40787;SDS011;26497;52.494;7.546;2022-12-07T03:59:24;11.65;;;2.55;;
40787;SDS011;26497;52.494;7.546;2022-12-07T04:01:54;12.95;;;1.48;;
40787;SDS011;26497;52.494;7.546;2022-12-07T04:04:27;6.55;;;2.50;;
40787;SDS011;26497;52.494;7.546;2022-12-07T04:06:55;11.70;;;2.67;;
40787;SDS011;26497;52.494;7.546;2022-12-07T04:09:22;9.90;;;2.63;;
40787;SDS011;26497;52.494;7.546;2022-12-07T04:11:49;8.63;;;2.50;;
40787;SDS011;26497;52.494;7.546;2022-12-07T04:14:16;5.63;;;1.88;;
40787;SDS011;26497;52.494;7.546;2022-12-07T04:16:46;6.05;;;1.90;;
40787;SDS011;26497;52.494;7.546;2022-12-07T04:19:15;3.72;;;1.55;;
40787;SDS011;26497;52.494;7.546;2022-12-07T04:21:43;17.67;;;1.23;;
40787;SDS011;26497;52.494;7.546;2022-12-07T04:24:11;13.02;;;3.85;;
40787;SDS011;26497;52.494;7.546;2022-12-07T04:26:39;3.45;;;1.38;;
40787;SDS011;26497;52.494;7.546;2022-12-07T04:29:06;10.75;;;1.75;;
40787;SDS011;26497;52.494;7.546;2022-12-07T04:31:33;9.50;;;1.92;;
40787;SDS011;26497;52.494;7.546;2022-12-07T04:34:01;7.15;;;1.30;;
40787;SDS011;26497;52.494;7.546;2022-12-07T04:36:29;9.20;;;1.42;;
40787;SDS011;26497;52.494;7.546;2022-12-07T04:38:57;13.55;;;1.55;;
40787;SDS011;26497;52.494;7.546;2022-12-07T04:41:24;8.45;;;2.53;;
40787;SDS011;26497;52.494;7.546;2022-12-07T04:43:53;16.45;;;1.30;;
40787;SDS011;26497;52.494;7.546;2022-12-07T04:46:21;10.60;;;1.85;;
40787;SDS011;26497;52.494;7.546;2022-12-07T04:48:48;10.00;;;2.03;;
40787;SDS011;26497;52.494;7.546;2022-12-07T04:51:16;15.93;;;2.08;;
40787;SDS011;26497;52.494;7.546;2022-12-07T04:53:48;4.93;;;1.42;;
40787;SDS011;26497;52.494;7.546;2022-12-07T04:56:15;2.65;;;1.38;;
40787;SDS011;26497;52.494;7.546;2022-12-07T04:58:44;9.50;;;1.55;;
40787;SDS011;26497;52.494;7.546;2022-12-07T05:01:13;8.82;;;2.33;;
40787;SDS011;26497;52.494;7.546;2022-12-07T05:03:41;7.22;;;1.90;;
40787;SDS011;26497;52.494;7.546;2022-12-07T05:06:09;11.15;;;2.00;;
40787;SDS011;26497;52.494;7.546;2022-12-07T05:08:37;12.93;;;2.95;;
40787;SDS011;26497;52.494;7.546;2022-12-07T05:11:06;11.27;;;2.58;;
40787;SDS011;26497;52.494;7.546;2022-12-07T05:13:34;3.38;;;1.40;;
40787;SDS011;26497;52.494;7.546;2022-12-07T05:16:01;7.70;;;1.85;;
40787;SDS011;26497;52.494;7.546;2022-12-07T05:18:29;5.65;;;1.60;;
40787;SDS011;26497;52.494;7.546;2022-12-07T05:20:56;8.00;;;1.30;;
40787;SDS011;26497;52.494;7.546;2022-12-07T05:23:23;12.60;;;1.65;;
40787;SDS011;26497;52.494;7.546;2022-12-07T05:25:50;15.68;;;1.83;;
40787;SDS011;26497;52.494;7.546;2022-12-07T05:28:18;12.10;;;1.92;;
40787;SDS011;26497;52.494;7.546;2022-12-07T05:30:45;14.38;;;1.80;;
40787;SDS011;26497;52.494;7.546;2022-12-07T05:33:12;4.07;;;1.42;;
40787;SDS011;26497;52.494;7.546;2022-12-07T05:35:39;8.85;;;1.77;;
40787;SDS011;26497;52.494;7.546;2022-12-07T05:38:06;10.60;;;2.15;;
40787;SDS011;26497;52.494;7.546;2022-12-07T05:40:33;12.65;;;2.47;;
40787;SDS011;26497;52.494;7.546;2022-12-07T05:43:00;8.80;;;1.77;;
40787;SDS011;26497;52.494;7.546;2022-12-07T05:45:27;8.35;;;1.50;;
40787;SDS011;26497;52.494;7.546;2022-12-07T05:47:54;7.95;;;1.85;;
40787;SDS011;26497;52.494;7.546;2022-12-07T05:50:21;8.73;;;1.85;;
40787;SDS011;26497;52.494;7.546;2022-12-07T05:52:48;7.65;;;1.50;;
40787;SDS011;26497;52.494;7.546;2022-12-07T05:55:15;3.22;;;1.25;;
40787;SDS011;26497;52.494;7.546;2022-12-07T05:57:42;3.35;;;1.33;;
40787;SDS011;26497;52.494;7.546;2022-12-07T06:00:31;5.13;;;1.65;;
40787;SDS011;26497;52.494;7.546;2022-12-07T06:02:57;5.38;;;1.15;;
40787;SDS011;26497;52.494;7.546;2022-12-07T06:05:24;6.80;;;1.92;;
40787;SDS011;26497;52.494;7.546;2022-12-07T06:07:51;13.98;;;2.25;;
40787;SDS011;26497;52.494;7.546;2022-12-07T06:10:18;18.13;;;1.52;;
40787;SDS011;26497;52.494;7.546;2022-12-07T06:12:45;6.05;;;1.08;;
40787;SDS011;26497;52.494;7.546;2022-12-07T06:15:11;7.57;;;2.17;;
40787;SDS011;26497;52.494;7.546;2022-12-07T06:17:40;10.20;;;1.50;;
40787;SDS011;26497;52.494;7.546;2022-12-07T06:20:07;4.38;;;1.83;;
40787;SDS011;26497;52.494;7.546;2022-12-07T06:22:35;12.73;;;1.35;;
40787;SDS011;26497;52.494;7.546;2022-12-07T06:25:02;9.48;;;1.75;;
40787;SDS011;26497;52.494;7.546;2022-12-07T06:27:29;7.70;;;1.35;;
40787;SDS011;26497;52.494;7.546;2022-12-07T06:29:57;13.50;;;1.35;;
40787;SDS011;26497;52.494;7.546;2022-12-07T06:32:30;8.75;;;2.08;;
40787;SDS011;26497;52.494;7.546;2022-12-07T06:34:58;8.35;;;1.42;;
40787;SDS011;26497;52.494;7.546;2022-12-07T06:37:25;22.52;;;1.80;;
40787;SDS011;26497;52.494;7.546;2022-12-07T06:39:52;15.98;;;2.03;;
40787;SDS011;26497;52.494;7.546;2022-12-07T06:42:19;5.85;;;1.25;;
40787;SDS011;26497;52.494;7.546;2022-12-07T06:44:46;7.47;;;1.55;;
40787;SDS011;26497;52.494;7.546;2022-12-07T06:47:14;3.97;;;1.00;;
40787;SDS011;26497;52.494;7.546;2022-12-07T06:49:41;10.95;;;1.63;;
40787;SDS011;26497;52.494;7.546;2022-12-07T06:52:09;3.47;;;1.33;;
40787;SDS011;26497;52.494;7.546;2022-12-07T06:54:36;25.60;;;1.95;;
40787;SDS011;26497;52.494;7.546;2022-12-07T06:57:03;7.60;;;1.70;;
40787;SDS011;26497;52.494;7.546;2022-12-07T06:59:30;11.30;;;1.58;;
40787;SDS011;26497;52.494;7.546;2022-12-07T07:01:57;2.38;;;0.88;;
40787;SDS011;26497;52.494;7.546;2022-12-07T07:04:24;20.95;;;2.63;;
40787;SDS011;26497;52.494;7.546;2022-12-07T07:06:51;20.48;;;2.88;;
40787;SDS011;26497;52.494;7.546;2022-12-07T07:09:19;18.42;;;2.28;;
40787;SDS011;26497;52.494;7.546;2022-12-07T07:11:46;10.10;;;1.50;;
40787;SDS011;26497;52.494;7.546;2022-12-07T07:14:13;4.43;;;1.13;;
40787;SDS011;26497;52.494;7.546;2022-12-07T07:16:44;10.07;;;1.73;;
40787;SDS011;26497;52.494;7.546;2022-12-07T07:19:11;9.63;;;1.80;;
40787;SDS011;26497;52.494;7.546;2022-12-07T07:21:37;11.02;;;1.40;;
40787;SDS011;26497;52.494;7.546;2022-12-07T07:24:05;12.07;;;1.30;;
40787;SDS011;26497;52.494;7.546;2022-12-07T07:26:34;5.10;;;1.42;;
40787;SDS011;26497;52.494;7.546;2022-12-07T07:29:01;9.73;;;1.67;;
40787;SDS011;26497;52.494;7.546;2022-12-07T07:31:28;9.00;;;1.42;;
40787;SDS011;26497;52.494;7.546;2022-12-07T07:33:55;6.53;;;1.38;;
40787;SDS011;26497;52.494;7.546;2022-12-07T07:36:22;12.68;;;1.70;;
40787;SDS011;26497;52.494;7.546;2022-12-07T07:38:49;6.00;;;1.35;;
40787;SDS011;26497;52.494;7.546;2022-12-07T07:41:16;7.50;;;1.90;;
40787;SDS011;26497;52.494;7.546;2022-12-07T07:43:44;14.07;;;1.80;;
40787;SDS011;26497;52.494;7.546;2022-12-07T07:46:11;16.75;;;1.23;;
40787;SDS011;26497;52.494;7.546;2022-12-07T07:48:38;7.80;;;2.15;;
40787;SDS011;26497;52.494;7.546;2022-12-07T07:51:05;6.75;;;1.67;;
40787;SDS011;26497;52.494;7.546;2022-12-07T07:53:33;11.02;;;1.77;;
40787;SDS011;26497;52.494;7.546;2022-12-07T07:56:00;17.00;;;1.58;;
40787;SDS011;26497;52.494;7.546;2022-12-07T07:58:27;8.00;;;1.38;;
40787;SDS011;26497;52.494;7.546;2022-12-07T08:00:55;5.97;;;1.60;;
40787;SDS011;26497;52.494;7.546;2022-12-07T08:03:22;2.70;;;1.38;;
40787;SDS011;26497;52.494;7.546;2022-12-07T08:05:49;11.02;;;2.35;;
40787;SDS011;26497;52.494;7.546;2022-12-07T08:08:16;19.67;;;1.92;;
40787;SDS011;26497;52.494;7.546;2022-12-07T08:10:43;6.63;;;1.60;;
40787;SDS011;26497;52.494;7.546;2022-12-07T08:13:10;14.13;;;1.90;;
40787;SDS011;26497;52.494;7.546;2022-12-07T08:15:39;12.07;;;2.47;;
40787;SDS011;26497;52.494;7.546;2022-12-07T08:18:09;7.38;;;1.80;;
40787;SDS011;26497;52.494;7.546;2022-12-07T08:20:37;7.00;;;2.22;;
40787;SDS011;26497;52.494;7.546;2022-12-07T08:23:05;7.63;;;2.70;;
40787;SDS011;26497;52.494;7.546;2022-12-07T08:25:35;11.93;;;2.35;;
40787;SDS011;26497;52.494;7.546;2022-12-07T08:28:02;13.35;;;2.00;;
40787;SDS011;26497;52.494;7.546;2022-12-07T08:30:30;14.00;;;2.47;;
40787;SDS011;26497;52.494;7.546;2022-12-07T08:32:57;10.93;;;3.20;;
40787;SDS011;26497;52.494;7.546;2022-12-07T08:35:26;8.48;;;1.48;;
40787;SDS011;26497;52.494;7.546;2022-12-07T08:37:53;8.88;;;2.03;;
40787;SDS011;26497;52.494;7.546;2022-12-07T08:40:22;22.38;;;4.00;;
40787;SDS011;26497;52.494;7.546;2022-12-07T08:42:49;16.23;;;4.50;;
40787;SDS011;26497;52.494;7.546;2022-12-07T08:45:17;10.88;;;2.47;;
40787;SDS011;26497;52.494;7.546;2022-12-07T08:47:46;19.30;;;3.72;;
40787;SDS011;26497;52.494;7.546;2022-12-07T08:50:17;17.27;;;2.42;;
40787;SDS011;26497;52.494;7.546;2022-12-07T08:52:46;8.55;;;1.17;;
40787;SDS011;26497;52.494;7.546;2022-12-07T08:55:17;17.77;;;3.83;;
40787;SDS011;26497;52.494;7.546;2022-12-07T08:57:45;3.60;;;1.55;;
40787;SDS011;26497;52.494;7.546;2022-12-07T09:00:13;6.30;;;2.88;;
40787;SDS011;26497;52.494;7.546;2022-12-07T09:02:42;4.18;;;1.10;;
40787;SDS011;26497;52.494;7.546;2022-12-07T09:05:10;6.25;;;1.48;;
40787;SDS011;26497;52.494;7.546;2022-12-07T09:07:37;7.82;;;0.77;;
40787;SDS011;26497;52.494;7.546;2022-12-07T09:10:06;10.50;;;1.65;;
40787;SDS011;26497;52.494;7.546;2022-12-07T09:12:34;7.05;;;1.60;;
40787;SDS011;26497;52.494;7.546;2022-12-07T09:15:01;16.83;;;1.38;;
40787;SDS011;26497;52.494;7.546;2022-12-07T09:17:31;12.07;;;1.40;;
40787;SDS011;26497;52.494;7.546;2022-12-07T09:19:59;7.97;;;1.48;;
40787;SDS011;26497;52.494;7.546;2022-12-07T09:22:28;10.20;;;1.73;;
40787;SDS011;26497;52.494;7.546;2022-12-07T09:24:56;12.95;;;2.30;;
40787;SDS011;26497;52.494;7.546;2022-12-07T09:27:24;8.52;;;1.40;;
40787;SDS011;26497;52.494;7.546;2022-12-07T09:29:52;7.28;;;2.03;;
40787;SDS011;26497;52.494;7.546;2022-12-07T09:32:19;6.13;;;1.58;;
40787;SDS011;26497;52.494;7.546;2022-12-07T09:34:46;6.32;;;1.30;;
40787;SDS011;26497;52.494;7.546;2022-12-07T09:37:13;12.25;;;1.73;;
40787;SDS011;26497;52.494;7.546;2022-12-07T09:39:40;11.43;;;1.10;;
40787;SDS011;26497;52.494;7.546;2022-12-07T09:42:08;9.40;;;1.63;;
40787;SDS011;26497;52.494;7.546;2022-12-07T09:44:44;5.88;;;1.23;;
40787;SDS011;26497;52.494;7.546;2022-12-07T09:47:11;13.93;;;1.80;;
40787;SDS011;26497;52.494;7.546;2022-12-07T09:49:38;4.93;;;1.23;;
40787;SDS011;26497;52.494;7.546;2022-12-07T09:52:17;3.15;;;1.05;;
40787;SDS011;26497;52.494;7.546;2022-12-07T09:54:50;12.85;;;3.13;;
40787;SDS011;26497;52.494;7.546;2022-12-07T09:57:18;5.05;;;1.48;;
40787;SDS011;26497;52.494;7.546;2022-12-07T09:59:55;5.72;;;1.70;;
40787;SDS011;26497;52.494;7.546;2022-12-07T10:02:31;15.77;;;2.13;;
40787;SDS011;26497;52.494;7.546;2022-12-07T10:05:03;3.33;;;1.80;;
40787;SDS011;26497;52.494;7.546;2022-12-07T10:07:33;9.40;;;1.40;;
40787;SDS011;26497;52.494;7.546;2022-12-07T10:10:02;13.55;;;1.95;;
40787;SDS011;26497;52.494;7.546;2022-12-07T10:12:39;9.60;;;1.00;;
40787;SDS011;26497;52.494;7.546;2022-12-07T10:15:22;10.45;;;0.82;;
40787;SDS011;26497;52.494;7.546;2022-12-07T10:17:51;7.38;;;1.30;;
40787;SDS011;26497;52.494;7.546;2022-12-07T10:20:20;3.80;;;1.08;;
40787;SDS011;26497;52.494;7.546;2022-12-07T10:22:54;5.63;;;1.25;;
40787;SDS011;26497;52.494;7.546;2022-12-07T10:25:25;3.38;;;0.75;;
40787;SDS011;26497;52.494;7.546;2022-12-07T10:27:57;3.90;;;0.90;;
40787;SDS011;26497;52.494;7.546;2022-12-07T10:30:45;3.58;;;0.98;;
40787;SDS011;26497;52.494;7.546;2022-12-07T10:33:28;10.02;;;1.73;;
40787;SDS011;26497;52.494;7.546;2022-12-07T10:36:02;7.88;;;1.98;;
40787;SDS011;26497;52.494;7.546;2022-12-07T10:38:46;4.72;;;1.40;;
40787;SDS011;26497;52.494;7.546;2022-12-07T10:41:15;3.85;;;0.82;;
40787;SDS011;26497;52.494;7.546;2022-12-07T10:43:49;13.63;;;1.58;;
40787;SDS011;26497;52.494;7.546;2022-12-07T10:46:24;6.93;;;1.20;;
40787;SDS011;26497;52.494;7.546;2022-12-07T10:49:18;7.38;;;1.83;;
40787;SDS011;26497;52.494;7.546;2022-12-07T10:52:34;3.25;;;0.77;;
40787;SDS011;26497;52.494;7.546;2022-12-07T10:55:19;4.93;;;1.52;;
40787;SDS011;26497;52.494;7.546;2022-12-07T10:57:59;3.90;;;1.30;;
40787;SDS011;26497;52.494;7.546;2022-12-07T11:00:46;1.55;;;1.10;;
40787;SDS011;26497;52.494;7.546;2022-12-07T11:03:30;4.25;;;2.10;;
40787;SDS011;26497;52.494;7.546;2022-12-07T11:06:30;4.40;;;1.90;;
40787;SDS011;26497;52.494;7.546;2022-12-07T11:09:08;6.15;;;2.10;;
40787;SDS011;26497;52.494;7.546;2022-12-07T11:12:07;12.90;;;2.50;;
40787;SDS011;26497;52.494;7.546;2022-12-07T11:14:46;14.20;;;3.83;;
40787;SDS011;26497;52.494;7.546;2022-12-07T11:17:21;2.85;;;2.35;;
40787;SDS011;26497;52.494;7.546;2022-12-07T11:20:03;5.22;;;2.78;;
40787;SDS011;26497;52.494;7.546;2022-12-07T11:22:45;2.65;;;2.08;;
40787;SDS011;26497;52.494;7.546;2022-12-07T11:25:21;6.45;;;2.53;;
40787;SDS011;26497;52.494;7.546;2022-12-07T11:28:01;1.85;;;1.10;;
40787;SDS011;26497;52.494;7.546;2022-12-07T11:30:46;5.40;;;1.52;;
40787;SDS011;26497;52.494;7.546;2022-12-07T11:33:26;9.27;;;2.38;;
40787;SDS011;26497;52.494;7.546;2022-12-07T11:36:04;9.43;;;1.45;;
40787;SDS011;26497;52.494;7.546;2022-12-07T11:38:50;2.47;;;1.30;;
40787;SDS011;26497;52.494;7.546;2022-12-07T11:41:22;18.98;;;4.18;;
40787;SDS011;26497;52.494;7.546;2022-12-07T11:43:55;4.57;;;1.45;;
40787;SDS011;26497;52.494;7.546;2022-12-07T11:46:29;12.38;;;2.28;;
40787;SDS011;26497;52.494;7.546;2022-12-07T11:49:13;5.68;;;2.03;;
40787;SDS011;26497;52.494;7.546;2022-12-07T11:51:48;7.20;;;1.40;;
40787;SDS011;26497;52.494;7.546;2022-12-07T11:54:21;5.80;;;1.63;;
40787;SDS011;26497;52.494;7.546;2022-12-07T11:56:54;10.02;;;1.98;;
40787;SDS011;26497;52.494;7.546;2022-12-07T11:59:29;9.60;;;2.50;;
40787;SDS011;26497;52.494;7.546;2022-12-07T12:02:03;7.25;;;1.40;;
40787;SDS011;26497;52.494;7.546;2022-12-07T12:04:46;9.20;;;1.33;;
40787;SDS011;26497;52.494;7.546;2022-12-07T12:07:23;5.35;;;1.20;;
40787;SDS011;26497;52.494;7.546;2022-12-07T12:09:53;1.92;;;1.20;;
40787;SDS011;26497;52.494;7.546;2022-12-07T12:12:31;3.75;;;1.45;;
40787;SDS011;26497;52.494;7.546;2022-12-07T12:15:36;5.55;;;1.23;;
40787;SDS011;26497;52.494;7.546;2022-12-07T12:18:24;7.22;;;1.25;;
40787;SDS011;26497;52.494;7.546;2022-12-07T12:21:20;5.88;;;1.88;;
40787;SDS011;26497;52.494;7.546;2022-12-07T12:23:55;4.47;;;2.50;;
40787;SDS011;26497;52.494;7.546;2022-12-07T12:26:29;5.45;;;4.13;;
40787;SDS011;26497;52.494;7.546;2022-12-07T12:29:00;12.38;;;4.10;;
40787;SDS011;26497;52.494;7.546;2022-12-07T12:31:35;9.05;;;4.70;;
40787;SDS011;26497;52.494;7.546;2022-12-07T12:37:13;4.68;;;4.38;;
40787;SDS011;26497;52.494;7.546;2022-12-07T12:46:36;5.80;;;5.30;;
40787;SDS011;26497;52.494;7.546;2022-12-07T12:52:49;7.57;;;5.05;;
40787;SDS011;26497;52.494;7.546;2022-12-07T12:59:16;12.02;;;6.10;;
40787;SDS011;26497;52.494;7.546;2022-12-07T13:01:50;6.95;;;4.30;;
40787;SDS011;26497;52.494;7.546;2022-12-07T13:04:47;5.20;;;4.88;;
40787;SDS011;26497;52.494;7.546;2022-12-07T13:22:39;11.20;;;3.40;;
40787;SDS011;26497;52.494;7.546;2022-12-07T13:25:30;6.20;;;2.47;;
40787;SDS011;26497;52.494;7.546;2022-12-07T13:28:14;5.47;;;2.65;;
40787;SDS011;26497;52.494;7.546;2022-12-07T13:30:49;6.53;;;1.92;;
40787;SDS011;26497;52.494;7.546;2022-12-07T13:33:42;10.15;;;2.05;;
40787;SDS011;26497;52.494;7.546;2022-12-07T13:36:12;3.03;;;1.33;;
40787;SDS011;26497;52.494;7.546;2022-12-07T13:38:54;2.72;;;1.70;;
40787;SDS011;26497;52.494;7.546;2022-12-07T13:41:23;2.22;;;1.30;;
40787;SDS011;26497;52.494;7.546;2022-12-07T13:43:59;4.97;;;0.88;;
40787;SDS011;26497;52.494;7.546;2022-12-07T13:46:35;2.17;;;0.73;;
40787;SDS011;26497;52.494;7.546;2022-12-07T13:49:19;4.43;;;1.65;;
40787;SDS011;26497;52.494;7.546;2022-12-07T13:51:49;6.95;;;3.42;;
40787;SDS011;26497;52.494;7.546;2022-12-07T13:54:18;6.95;;;3.25;;
40787;SDS011;26497;52.494;7.546;2022-12-07T13:56:49;8.57;;;4.20;;
40787;SDS011;26497;52.494;7.546;2022-12-07T13:59:18;11.73;;;6.40;;
40787;SDS011;26497;52.494;7.546;2022-12-07T14:05:28;7.30;;;2.08;;
40787;SDS011;26497;52.494;7.546;2022-12-07T14:07:57;5.03;;;1.77;;
40787;SDS011;26497;52.494;7.546;2022-12-07T14:10:27;6.80;;;1.58;;
40787;SDS011;26497;52.494;7.546;2022-12-07T14:12:57;5.60;;;1.73;;
40787;SDS011;26497;52.494;7.546;2022-12-07T14:15:27;9.20;;;2.42;;
40787;SDS011;26497;52.494;7.546;2022-12-07T14:17:57;3.47;;;1.50;;
40787;SDS011;26497;52.494;7.546;2022-12-07T14:22:56;7.95;;;3.53;;
40787;SDS011;26497;52.494;7.546;2022-12-07T14:25:23;12.82;;;5.10;;
40787;SDS011;26497;52.494;7.546;2022-12-07T14:27:54;12.85;;;5.13;;
40787;SDS011;26497;52.494;7.546;2022-12-07T14:30:24;15.85;;;5.72;;
40787;SDS011;26497;52.494;7.546;2022-12-07T14:32:53;13.27;;;5.72;;
40787;SDS011;26497;52.494;7.546;2022-12-07T14:35:25;11.35;;;4.22;;
40787;SDS011;26497;52.494;7.546;2022-12-07T14:37:52;6.30;;;3.33;;
40787;SDS011;26497;52.494;7.546;2022-12-07T14:40:20;8.52;;;2.20;;
40787;SDS011;26497;52.494;7.546;2022-12-07T14:42:51;4.55;;;1.60;;
40787;SDS011;26497;52.494;7.546;2022-12-07T14:45:22;12.60;;;2.78;;
40787;SDS011;26497;52.494;7.546;2022-12-07T14:47:49;9.90;;;2.63;;
40787;SDS011;26497;52.494;7.546;2022-12-07T14:50:17;9.15;;;2.40;;
40787;SDS011;26497;52.494;7.546;2022-12-07T14:52:46;8.45;;;3.50;;
40787;SDS011;26497;52.494;7.546;2022-12-07T14:55:18;17.63;;;3.60;;
40787;SDS011;26497;52.494;7.546;2022-12-07T14:57:51;17.70;;;2.78;;
40787;SDS011;26497;52.494;7.546;2022-12-07T15:00:19;15.57;;;2.00;;
40787;SDS011;26497;52.494;7.546;2022-12-07T15:02:48;13.13;;;2.03;;
40787;SDS011;26497;52.494;7.546;2022-12-07T15:05:16;16.52;;;2.75;;
40787;SDS011;26497;52.494;7.546;2022-12-07T15:07:44;2.95;;;1.50;;
40787;SDS011;26497;52.494;7.546;2022-12-07T15:10:13;11.18;;;2.55;;
40787;SDS011;26497;52.494;7.546;2022-12-07T15:12:45;8.23;;;1.92;;
40787;SDS011;26497;52.494;7.546;2022-12-07T15:15:14;6.88;;;2.30;;
40787;SDS011;26497;52.494;7.546;2022-12-07T15:17:42;5.78;;;1.77;;
40787;SDS011;26497;52.494;7.546;2022-12-07T15:20:10;10.27;;;2.13;;
40787;SDS011;26497;52.494;7.546;2022-12-07T15:22:39;8.13;;;2.20;;
40787;SDS011;26497;52.494;7.546;2022-12-07T15:25:06;11.43;;;2.92;;
40787;SDS011;26497;52.494;7.546;2022-12-07T15:27:34;6.45;;;1.60;;
40787;SDS011;26497;52.494;7.546;2022-12-07T15:30:02;3.63;;;1.50;;
40787;SDS011;26497;52.494;7.546;2022-12-07T15:32:32;1.83;;;0.50;;
40787;SDS011;26497;52.494;7.546;2022-12-07T15:34:59;7.43;;;1.27;;
40787;SDS011;26497;52.494;7.546;2022-12-07T15:37:26;6.68;;;1.38;;
40787;SDS011;26497;52.494;7.546;2022-12-07T15:39:53;4.78;;;1.48;;
40787;SDS011;26497;52.494;7.546;2022-12-07T15:42:20;2.63;;;0.93;;
40787;SDS011;26497;52.494;7.546;2022-12-07T15:44:47;5.20;;;1.20;;
40787;SDS011;26497;52.494;7.546;2022-12-07T15:47:28;4.32;;;1.92;;